Time;durP1;ratioP1;P1;durP2;ratioP2;P2;SDS_P1;SDS_P2;PMS_P1;PMS_P2;Temp;Humidity;BMP_temperature;BMP_pressure;BME280_temperature;BME280_humidity;BME280_pressure;Samples;Min_cycle;Max_cycle;Signal;HPM_P1;HPM_P2
2022/12/05 00:01:49;;;;;;;12.67;8.53;;;3.40;99.90;4.60;96957.00;;;;5048145;28;20224;-67
2022/12/05 00:04:38;;;;;;;12.30;8.27;;;3.40;99.90;4.60;96959.00;;;;5042448;28;20671;-66
2022/12/05 00:07:27;;;;;;;10.80;8.03;;;3.40;99.90;4.70;96960.00;;;;5050333;28;20193;-67
2022/12/05 00:10:17;;;;;;;10.70;7.90;;;3.40;99.90;4.70;96959.00;;;;5042594;28;20446;-67
2022/12/05 00:13:06;;;;;;;12.07;7.97;;;3.50;99.90;4.70;96956.00;;;;5038414;28;20599;-67
2022/12/05 00:15:55;;;;;;;9.73;7.83;;;3.40;99.90;4.50;96968.00;;;;5041231;28;20200;-66
2022/12/05 00:18:44;;;;;;;10.43;9.20;;;3.40;99.90;4.50;96977.00;;;;5046397;28;20201;-67
2022/12/05 00:21:36;;;;;;;10.93;7.97;;;3.50;99.90;4.60;96966.00;;;;5043692;28;20220;-66
2022/12/05 00:24:25;;;;;;;12.50;7.97;;;3.40;99.90;4.70;96972.00;;;;5038380;28;20208;-67
2022/12/05 00:27:15;;;;;;;10.60;7.37;;;3.40;99.90;4.80;96978.00;;;;5046963;28;20215;-67
2022/12/05 00:30:06;;;;;;;12.03;8.60;;;3.60;99.90;4.80;96971.00;;;;5050443;28;20212;-66
2022/12/05 00:32:54;;;;;;;10.13;7.47;;;3.40;99.90;4.80;96971.00;;;;5046641;28;20225;-66
2022/12/05 00:35:43;;;;;;;12.17;8.60;;;3.40;99.90;4.70;96969.00;;;;5051919;28;20698;-67
2022/12/05 00:38:32;;;;;;;12.10;9.07;;;3.40;99.90;4.80;96971.00;;;;5050482;28;20200;-66
2022/12/05 00:41:23;;;;;;;11.23;7.77;;;3.50;99.90;4.80;96967.00;;;;5042809;28;20475;-66
2022/12/05 00:44:14;;;;;;;12.63;8.03;;;3.40;99.90;4.80;96967.00;;;;5044938;28;20589;-67
2022/12/05 00:47:02;;;;;;;10.13;7.83;;;3.50;99.90;4.90;96954.00;;;;5042066;28;20208;-67
2022/12/05 00:49:51;;;;;;;9.33;7.57;;;3.50;99.90;4.80;96956.00;;;;5047235;28;20208;-67
2022/12/05 00:52:40;;;;;;;9.23;7.50;;;3.50;99.90;4.80;96950.00;;;;5052556;28;20702;-67
2022/12/05 00:55:28;;;;;;;10.87;8.67;;;3.50;99.90;4.90;96961.00;;;;5060697;28;20196;-67
2022/12/05 00:58:17;;;;;;;14.83;7.60;;;3.50;99.90;4.90;96947.00;;;;5038527;28;20684;-67
2022/12/05 01:01:12;;;;;;;11.00;7.80;;;3.50;99.90;4.80;96960.00;;;;5049916;28;20644;-67
2022/12/05 01:04:06;;;;;;;10.33;6.90;;;3.50;99.90;4.80;96966.00;;;;5051926;28;20193;-67
2022/12/05 01:06:58;;;;;;;9.07;6.40;;;3.50;99.90;4.90;96963.00;;;;5051966;28;20201;-67
2022/12/05 01:09:46;;;;;;;12.43;8.07;;;3.60;99.90;4.90;96973.00;;;;5054737;28;20211;-67
2022/12/05 01:12:35;;;;;;;14.17;8.67;;;3.50;99.90;4.90;96960.00;;;;5038576;28;20200;-67
2022/12/05 01:15:24;;;;;;;9.40;7.87;;;3.50;99.90;4.90;96962.00;;;;5068868;28;20675;-64
2022/12/05 01:18:14;;;;;;;12.67;8.77;;;3.50;99.90;4.90;96953.00;;;;5061502;28;20581;-66
2022/12/05 01:21:05;;;;;;;12.43;7.57;;;3.60;99.90;4.90;96951.00;;;;5070693;28;20224;-66
2022/12/05 01:23:54;;;;;;;10.17;7.27;;;3.60;99.90;4.90;96960.00;;;;5072639;28;20200;-66
2022/12/05 01:26:43;;;;;;;11.80;7.50;;;3.60;99.90;4.90;96948.00;;;;5072903;28;20196;-66
2022/12/05 01:29:32;;;;;;;11.10;7.83;;;3.60;99.90;4.90;96950.00;;;;5062969;28;20203;-66
2022/12/05 01:32:20;;;;;;;12.63;7.67;;;3.60;99.90;4.90;96957.00;;;;5069794;28;20222;-67
2022/12/05 01:35:11;;;;;;;11.27;7.27;;;3.60;99.90;4.80;96950.00;;;;5070783;28;20293;-66
2022/12/05 01:38:00;;;;;;;9.03;7.10;;;3.50;99.90;4.80;96949.00;;;;5069562;28;20803;-67
2022/12/05 01:40:48;;;;;;;10.70;8.27;;;3.50;99.90;4.90;96947.00;;;;5070827;28;20220;-66
2022/12/05 01:43:54;;;;;;;15.23;7.83;;;3.50;99.90;4.90;96940.00;;;;5059987;28;20581;-67
2022/12/05 01:46:47;;;;;;;11.80;7.47;;;3.50;99.90;4.80;96950.00;;;;5071706;28;20196;-66
2022/12/05 01:49:40;;;;;;;10.50;7.10;;;3.70;99.90;4.90;96941.00;;;;5071511;28;20211;-66
2022/12/05 01:52:32;;;;;;;13.40;8.07;;;3.50;99.90;4.90;96937.00;;;;5067326;28;20204;-66
2022/12/05 01:55:21;;;;;;;8.90;7.00;;;3.50;99.90;4.90;96932.00;;;;5062981;28;20598;-67
2022/12/05 01:58:10;;;;;;;9.30;7.13;;;3.60;99.90;4.80;96929.00;;;;5066774;28;20197;-66
2022/12/05 02:00:59;;;;;;;12.10;8.17;;;3.50;99.90;4.70;96929.00;;;;5071052;28;20235;-66
2022/12/05 02:03:51;;;;;;;11.80;8.70;;;3.50;99.90;4.80;96927.00;;;;5079961;28;20191;-66
2022/12/05 02:06:40;;;;;;;11.13;8.30;;;3.50;99.90;4.80;96920.00;;;;5061566;28;20239;-66
2022/12/05 02:09:30;;;;;;;14.27;8.47;;;3.60;99.90;4.70;96916.00;;;;5069468;28;20223;-66
2022/12/05 02:12:20;;;;;;;10.97;7.70;;;3.40;99.90;4.60;96910.00;;;;5067105;28;20208;-67
2022/12/05 02:15:35;;;;;;;9.77;7.30;;;3.40;99.90;4.70;96923.00;;;;5062201;28;20298;-67
2022/12/05 02:18:41;;;;;;;10.93;7.83;;;3.40;99.90;4.60;96926.00;;;;5063627;28;20891;-66
2022/12/05 02:21:57;;;;;;;21.23;10.03;;;3.50;99.90;4.50;96924.00;;;;5056354;28;20239;-67
2022/12/05 02:25:18;;;;;;;11.63;7.77;;;3.40;99.90;4.40;96919.00;;;;5071755;28;20220;-66
2022/12/05 02:28:31;;;;;;;11.23;8.23;;;3.30;99.90;4.70;96920.00;;;;5058102;28;20195;-66
2022/12/05 02:31:33;;;;;;;11.50;7.10;;;3.50;99.90;4.60;96915.00;;;;5065007;28;20219;-66
2022/12/05 02:34:28;;;;;;;10.27;7.77;;;3.30;99.90;4.70;96918.00;;;;5068438;28;20234;-67
2022/12/05 02:37:24;;;;;;;9.37;7.10;;;3.30;99.90;4.80;96902.00;;;;5069687;28;20710;-66
2022/12/05 02:40:23;;;;;;;9.27;5.90;;;3.50;99.90;4.80;96894.00;;;;5069463;28;20439;-67
2022/12/05 02:43:17;;;;;;;10.93;6.37;;;3.40;99.90;4.80;96887.00;;;;5068755;28;20211;-67
2022/12/05 02:46:11;;;;;;;11.83;8.33;;;3.40;99.90;4.80;96900.00;;;;5068425;28;20291;-66
2022/12/05 02:49:08;;;;;;;12.57;8.27;;;3.50;99.90;4.80;96900.00;;;;5068920;28;20204;-67
2022/12/05 02:51:59;;;;;;;12.13;8.40;;;3.50;99.90;4.80;96897.00;;;;5069415;28;20442;-67
2022/12/05 02:54:51;;;;;;;12.07;8.47;;;3.50;99.90;4.90;96903.00;;;;5069598;28;20227;-67
2022/12/05 02:57:48;;;;;;;10.47;8.47;;;3.50;99.90;4.90;96900.00;;;;5069687;28;20196;-67
2022/12/05 03:00:44;;;;;;;9.57;7.33;;;3.50;99.90;4.90;96902.00;;;;5061387;28;20224;-66
2022/12/05 03:03:33;;;;;;;11.73;9.10;;;3.50;99.90;4.80;96889.00;;;;5068657;28;20192;-67
2022/12/05 03:06:28;;;;;;;11.80;8.80;;;3.50;99.90;4.80;96897.00;;;;5078299;28;20215;-67
2022/12/05 03:09:22;;;;;;;10.70;8.67;;;3.50;99.90;4.80;96893.00;;;;5057072;28;20208;-66
2022/12/05 03:12:17;;;;;;;11.77;8.83;;;3.50;99.90;4.80;96890.00;;;;5062602;28;20251;-66
2022/12/05 03:15:13;;;;;;;15.27;8.93;;;3.50;99.90;4.80;96890.00;;;;5062326;28;20216;-67
2022/12/05 03:18:08;;;;;;;7.70;6.80;;;3.50;99.90;4.80;96894.00;;;;5056236;28;20679;-67
2022/12/05 03:21:03;;;;;;;12.67;7.67;;;3.40;99.90;4.70;96895.00;;;;5067512;22;20228;-89
2022/12/05 03:23:58;;;;;;;10.73;6.93;;;3.70;99.90;4.80;96889.00;;;;5039324;28;20214;-89
2022/12/05 03:26:55;;;;;;;15.50;9.40;;;4.10;99.90;4.60;96896.00;;;;5024573;28;20199;-89
2022/12/05 03:29:51;;;;;;;14.03;8.40;;;3.50;99.90;4.70;96896.00;;;;5012457;28;20730;-90
2022/12/05 03:32:45;;;;;;;10.13;7.37;;;3.70;99.90;4.70;96892.00;;;;5026400;28;20204;-89
2022/12/05 03:35:42;;;;;;;11.10;7.40;;;4.00;99.90;4.70;96905.00;;;;5044396;28;20193;-89
2022/12/05 03:38:35;;;;;;;11.67;7.60;;;3.40;99.90;4.60;96902.00;;;;5032903;28;20200;-90
2022/12/05 03:41:36;;;;;;;9.30;7.83;;;3.60;99.90;4.60;96898.00;;;;5035580;28;20197;-89
2022/12/05 03:44:33;;;;;;;11.03;7.53;;;3.70;99.90;4.60;96906.00;;;;5054762;28;20696;-90
2022/12/05 03:47:33;;;;;;;8.30;6.47;;;4.80;99.90;4.60;96902.00;;;;5011987;28;20194;-90
2022/12/05 03:50:27;;;;;;;7.73;6.60;;;3.40;99.90;4.70;96894.00;;;;5031666;28;20194;-89
2022/12/05 03:53:21;;;;;;;10.50;7.03;;;3.60;99.90;4.60;96899.00;;;;5036397;28;20215;-90
2022/12/05 03:56:14;;;;;;;10.70;7.30;;;4.90;99.90;4.60;96900.00;;;;5045018;28;20201;-90
2022/12/05 03:59:12;;;;;;;8.53;6.53;;;3.40;99.90;4.60;96891.00;;;;5039780;28;20205;-91
2022/12/05 04:02:09;;;;;;;10.20;5.90;;;3.80;99.90;4.70;96893.00;;;;5035987;28;20196;-91
2022/12/05 04:05:06;;;;;;;12.27;7.07;;;3.40;99.90;4.60;96893.00;;;;5041505;28;20236;-91
2022/12/05 04:08:01;;;;;;;10.30;6.90;;;3.40;99.90;4.60;96899.00;;;;5056302;28;20207;-92
2022/12/05 04:10:54;;;;;;;9.23;6.33;;;4.80;99.90;4.70;96902.00;;;;5046291;28;20432;-90
2022/12/05 04:13:47;;;;;;;9.23;6.73;;;3.30;99.90;4.70;96907.00;;;;5031268;28;20209;-91
2022/12/05 04:23:03;;;;;;;12.13;7.83;;;5.00;99.90;4.80;96915.00;;;;5032944;28;20664;-91
2022/12/05 04:26:02;;;;;;;13.50;8.27;;;3.50;99.90;4.70;96920.00;;;;5025810;28;20216;-91
2022/12/05 04:28:59;;;;;;;14.70;8.50;;;3.60;99.90;4.70;96913.00;;;;5011306;28;20668;-91
2022/12/05 04:31:56;;;;;;;15.20;8.30;;;3.80;99.90;4.50;96908.00;;;;5031893;28;20284;-91
2022/12/05 04:34:52;;;;;;;15.17;7.70;;;3.50;99.90;4.70;96910.00;;;;5015967;28;20225;-92
2022/12/05 04:37:45;;;;;;;10.80;7.47;;;5.50;99.90;4.80;96923.00;;;;5047108;28;20198;-94
2022/12/05 04:40:41;;;;;;;10.90;7.50;;;3.50;99.90;4.80;96912.00;;;;5026833;28;20198;-91
2022/12/05 04:43:34;;;;;;;12.27;8.00;;;3.60;99.90;4.80;96919.00;;;;5032919;28;20217;-91
2022/12/05 04:46:25;;;;;;;10.70;7.63;;;3.50;99.90;4.70;96912.00;;;;5031498;28;20221;-92
2022/12/05 04:49:20;;;;;;;11.20;7.47;;;3.50;99.90;4.60;96910.00;;;;5029566;28;20248;-91
2022/12/05 04:52:11;;;;;;;9.07;7.67;;;5.30;99.90;4.60;96910.00;;;;5028737;28;20668;-92
2022/12/05 04:55:07;;;;;;;10.60;7.93;;;3.70;99.90;4.50;96911.00;;;;5028835;28;20800;-90
2022/12/05 04:58:06;;;;;;;11.23;7.97;;;3.70;99.90;4.60;96919.00;;;;5034760;28;20204;-90
2022/12/05 05:01:03;;;;;;;10.93;7.73;;;3.80;99.90;4.70;96918.00;;;;5039747;28;20198;-91
2022/12/05 05:03:57;;;;;;;13.70;8.33;;;3.40;99.90;4.60;96911.00;;;;5031755;28;20218;-90
2022/12/05 05:06:48;;;;;;;9.90;7.50;;;3.50;99.90;4.70;96917.00;;;;5034286;28;20475;-90
2022/12/05 05:09:37;;;;;;;11.90;7.47;;;3.70;99.90;4.60;96920.00;;;;5029262;28;20198;-90
2022/12/05 05:12:26;;;;;;;11.50;7.17;;;5.00;99.90;4.50;96919.00;;;;5031847;28;20193;-90
2022/12/05 05:15:16;;;;;;;10.73;8.30;;;;;4.60;96909.00;;;;5030864;28;20229;-90
2022/12/05 05:18:05;;;;;;;7.10;5.63;;;3.50;99.90;4.60;96920.00;;;;5033198;28;20485;-90
2022/12/05 05:20:54;;;;;;;11.73;7.53;;;3.40;99.90;4.60;96925.00;;;;5028392;28;20205;-91
2022/12/05 05:23:45;;;;;;;8.37;6.73;;;3.30;99.90;4.60;96925.00;;;;5029012;28;20213;-91
2022/12/05 05:26:37;;;;;;;8.93;5.77;;;3.40;99.90;4.60;96937.00;;;;5031776;28;20836;-90
2022/12/05 05:29:26;;;;;;;11.13;6.67;;;;;4.70;96933.00;;;;5034378;28;20197;-90
2022/12/05 05:32:16;;;;;;;7.50;6.40;;;;;4.70;96931.00;;;;5034915;28;20518;-91
2022/12/05 05:35:06;;;;;;;6.67;5.97;;;;;4.60;96937.00;;;;5031010;28;20700;-92
2022/12/05 05:37:55;;;;;;;11.07;6.17;;;3.30;99.90;4.50;96938.00;;;;5034553;28;20796;-91
2022/12/05 05:40:46;;;;;;;8.97;6.70;;;3.70;99.90;4.60;96937.00;;;;5033634;28;20205;-91
2022/12/05 05:43:41;;;;;;;11.67;7.07;;;3.30;99.90;4.70;96946.00;;;;5038258;28;20253;-91
2022/12/05 05:49:38;;;;;;;7.50;6.47;;;;;4.50;96935.00;;;;5032925;28;20216;-91
2022/12/05 05:52:28;;;;;;;9.20;6.60;;;3.10;99.90;4.60;96941.00;;;;5047368;28;20455;-92
2022/12/05 05:55:17;;;;;;;12.37;7.73;;;3.40;99.90;4.50;96933.00;;;;5023110;28;20286;-92
2022/12/05 05:58:08;;;;;;;10.43;7.07;;;3.40;99.90;4.40;96939.00;;;;5028547;28;20205;-92
2022/12/05 06:01:04;;;;;;;7.23;5.50;;;3.30;99.90;4.50;96941.00;;;;5032595;28;20578;-91
2022/12/05 06:03:53;;;;;;;9.53;6.50;;;3.90;99.90;4.50;96944.00;;;;5028969;28;20229;-91
2022/12/05 06:06:42;;;;;;;7.73;6.10;;;5.50;99.90;4.60;96934.00;;;;5031392;28;20635;-91
2022/12/05 06:09:31;;;;;;;7.83;5.63;;;3.30;99.90;4.50;96932.00;;;;5041175;28;20205;-91
2022/12/05 06:12:21;;;;;;;8.03;6.37;;;3.20;99.90;4.40;96933.00;;;;5031075;28;20237;-91
2022/12/05 06:15:12;;;;;;;6.97;5.03;;;3.30;99.90;4.30;96934.00;;;;5031422;28;20585;-91
2022/12/05 06:18:02;;;;;;;11.03;6.80;;;3.50;99.90;4.30;96933.00;;;;5032367;28;20204;-91
2022/12/05 06:20:55;;;;;;;6.30;5.40;;;3.10;99.90;4.30;96943.00;;;;5032551;28;20446;-90
2022/12/05 06:23:45;;;;;;;7.00;5.87;;;3.20;99.90;4.30;96936.00;;;;5029878;28;20229;-91
2022/12/05 06:26:34;;;;;;;7.07;5.00;;;3.00;99.90;4.20;96929.00;;;;5023860;28;20221;-91
2022/12/05 06:29:23;;;;;;;6.43;4.60;;;;;4.20;96929.00;;;;5029727;28;20215;-90
2022/12/05 06:32:14;;;;;;;7.27;4.77;;;3.00;99.90;4.20;96936.00;;;;5034546;28;20421;-90
2022/12/05 06:35:13;;;;;;;5.57;4.67;;;;;4.20;96937.00;;;;5024017;28;20933;-90
2022/12/05 06:38:03;;;;;;;8.67;6.57;;;2.40;99.90;4.00;96921.00;;;;5030344;28;20421;-90
2022/12/05 06:40:52;;;;;;;5.83;4.37;;;;;4.10;96932.00;;;;5024035;28;20224;-92
2022/12/05 06:43:41;;;;;;;8.20;5.07;;;;;4.10;96942.00;;;;5035903;28;21000;-91
2022/12/05 06:46:31;;;;;;;4.33;3.80;;;1.70;99.90;4.20;96951.00;;;;5039507;28;20478;-90
2022/12/05 06:49:22;;;;;;;5.63;4.07;;;2.90;99.90;4.10;96940.00;;;;5030147;28;20205;-91
2022/12/05 06:52:14;;;;;;;5.33;4.53;;;;;4.20;96950.00;;;;5025252;28;20251;-91
2022/12/05 06:55:03;;;;;;;5.80;4.67;;;;;4.20;96960.00;;;;5030125;28;20966;-90
2022/12/05 06:57:52;;;;;;;8.43;3.53;;;3.00;99.90;4.30;96949.00;;;;5030102;28;20431;-91
2022/12/05 07:03:56;;;;;;;7.10;4.40;;;3.00;99.90;4.20;96970.00;;;;5004736;28;20228;-90
2022/12/05 07:06:48;;;;;;;7.63;5.33;;;3.00;99.90;4.20;96978.00;;;;5031772;28;20232;-90
2022/12/05 07:09:53;;;;;;;5.80;5.10;;;2.90;99.90;4.40;96980.00;;;;5019536;28;20206;-90
2022/12/05 07:12:42;;;;;;;6.10;5.20;;;3.10;99.90;4.50;96974.00;;;;5017348;28;20260;-90
2022/12/05 07:15:31;;;;;;;5.70;4.27;;;4.00;99.90;4.60;96976.00;;;;5030757;28;20205;-90
2022/12/05 07:18:20;;;;;;;5.57;4.33;;;3.30;99.90;4.60;96987.00;;;;5030652;28;20193;-90
2022/12/05 07:21:14;;;;;;;6.27;4.90;;;3.30;99.90;4.40;96978.00;;;;5028325;28;20209;-91
2022/12/05 07:24:05;;;;;;;7.20;5.20;;;3.60;99.90;4.50;96985.00;;;;5027593;28;20268;-91
2022/12/05 07:26:54;;;;;;;6.20;5.00;;;3.60;99.90;4.40;96997.00;;;;5025799;28;20229;-91
2022/12/05 07:29:43;;;;;;;5.63;4.20;;;4.60;99.90;4.20;96993.00;;;;5027166;28;20237;-92
2022/12/05 07:32:33;;;;;;;6.07;4.70;;;3.20;99.90;4.30;97001.00;;;;5043138;28;20220;-92
2022/12/05 07:35:22;;;;;;;6.30;4.03;;;3.60;99.90;4.40;96987.00;;;;5034318;28;20223;-91
2022/12/05 07:38:11;;;;;;;6.00;5.03;;;3.60;99.90;4.70;96983.00;;;;5033677;28;20205;-90
2022/12/05 07:41:06;;;;;;;5.70;4.17;;;3.40;99.90;4.60;96985.00;;;;5031496;28;20200;-91
2022/12/05 07:43:59;;;;;;;4.40;3.80;;;3.50;99.90;4.50;96977.00;;;;5026010;28;20229;-90
2022/12/05 07:46:48;;;;;;;7.13;5.00;;;3.40;99.90;4.70;96980.00;;;;5029400;28;20587;-90
2022/12/05 07:49:37;;;;;;;5.57;4.13;;;3.60;99.90;4.70;96990.00;;;;5027957;28;20193;-92
2022/12/05 07:52:27;;;;;;;9.87;6.60;;;4.00;99.90;4.80;96990.00;;;;5032117;28;20676;-90
2022/12/05 07:55:17;;;;;;;5.67;5.00;;;3.90;99.90;4.50;96988.00;;;;5025901;28;20225;-89
2022/12/05 07:58:07;;;;;;;7.73;3.87;;;4.10;99.90;4.30;96989.00;;;;5026500;28;20216;-91
2022/12/05 08:00:57;;;;;;;4.63;3.97;;;4.10;99.90;4.40;96983.00;;;;5026727;28;20594;-90
2022/12/05 08:03:47;;;;;;;6.13;4.37;;;3.50;99.90;4.80;96988.00;;;;5029516;28;20221;-90
2022/12/05 08:06:36;;;;;;;6.00;4.70;;;3.80;99.90;4.90;96986.00;;;;5032430;28;20217;-90
2022/12/05 08:09:25;;;;;;;6.53;4.90;;;4.20;99.90;4.90;96988.00;;;;5034294;28;20201;-90
2022/12/05 08:12:14;;;;;;;3.77;3.17;;;3.90;99.90;4.90;96992.00;;;;5050878;28;20207;-90
2022/12/05 08:15:06;;;;;;;4.53;4.13;;;5.10;99.90;5.00;96976.00;;;;5025349;28;20288;-90
2022/12/05 08:17:55;;;;;;;5.90;5.40;;;4.00;99.90;5.10;97003.00;;;;5025371;28;20209;-90
2022/12/05 08:20:44;;;;;;;4.53;3.63;;;4.40;99.90;5.00;96991.00;;;;5030676;28;20216;-90
2022/12/05 08:23:34;;;;;;;4.20;3.80;;;4.00;99.90;5.00;96991.00;;;;5031504;28;20614;-91
2022/12/05 08:26:26;;;;;;;3.60;3.07;;;4.40;99.90;5.40;96996.00;;;;5027671;28;20194;-90
2022/12/05 08:29:16;;;;;;;5.90;3.07;;;5.70;99.90;5.60;96998.00;;;;5030105;28;20212;-90
2022/12/05 08:32:06;;;;;;;4.53;3.23;;;4.20;99.90;5.80;96997.00;;;;5031910;28;20216;-90
2022/12/05 08:34:55;;;;;;;4.67;4.00;;;4.30;99.90;5.80;96998.00;;;;5031060;28;20593;-90
2022/12/05 08:37:44;;;;;;;3.83;3.53;;;5.10;99.90;5.60;97001.00;;;;5029883;28;20204;-89
2022/12/05 08:40:33;;;;;;;4.07;3.67;;;4.50;99.90;5.60;97003.00;;;;5019459;28;20208;-90
2022/12/05 08:43:22;;;;;;;3.90;3.60;;;4.70;99.90;5.80;97011.00;;;;5042167;28;20201;-89
2022/12/05 08:46:13;;;;;;;4.97;4.00;;;4.60;99.90;5.50;97009.00;;;;5019006;28;20599;-88
2022/12/05 08:49:04;;;;;;;2.87;2.67;;;4.70;99.90;5.60;97003.00;;;;5027523;28;20212;-89
2022/12/05 08:58:20;;;;;;;3.73;3.40;;;4.80;99.90;5.90;97003.00;;;;5035944;28;20288;-89
2022/12/05 09:01:18;;;;;;;3.33;3.00;;;4.80;99.90;5.90;97004.00;;;;5036893;28;20189;-90
2022/12/05 09:04:11;;;;;;;2.93;2.73;;;5.00;99.90;5.90;97012.00;;;;5038154;28;20228;-91
2022/12/05 09:07:03;;;;;;;4.17;3.37;;;4.90;99.90;6.10;97013.00;;;;5044308;28;20589;-90
2022/12/05 09:09:57;;;;;;;3.13;2.93;;;5.20;99.90;6.30;97006.00;;;;5045603;28;20239;-90
2022/12/05 09:12:49;;;;;;;2.97;2.63;;;6.70;99.90;6.20;96999.00;;;;5051622;28;20202;-90
2022/12/05 09:15:41;;;;;;;5.87;5.23;;;;;6.10;97004.00;;;;5038084;28;20197;-89
2022/12/05 09:18:35;;;;;;;3.67;3.30;;;;;6.00;96993.00;;;;5042072;28;20205;-90
2022/12/05 09:21:32;;;;;;;2.93;2.70;;;4.90;99.90;5.90;96997.00;;;;5046387;28;20208;-90
2022/12/05 09:24:34;;;;;;;4.43;3.80;;;4.80;99.90;6.20;96992.00;;;;5049938;28;20225;-89
2022/12/05 09:27:38;;;;;;;2.60;2.40;;;5.10;99.90;6.20;96993.00;;;;5037092;28;20220;-91
2022/12/05 09:30:42;;;;;;;3.70;3.23;;;5.70;99.90;6.30;97003.00;;;;5040726;28;20205;-90
2022/12/05 09:33:41;;;;;;;4.33;3.93;;;5.20;99.90;6.70;97000.00;;;;5032855;28;20232;-90
2022/12/05 09:36:39;;;;;;;4.90;4.07;;;6.80;99.90;6.80;97002.00;;;;5033145;28;20194;-90
2022/12/05 09:39:30;;;;;;;8.33;3.67;;;;;7.00;96993.00;;;;5041061;28;20266;-91
2022/12/05 09:42:48;;;;;;;5.47;4.50;;;5.40;99.90;7.10;97008.00;;;;5030812;28;20241;-89
2022/12/05 09:45:54;;;;;;;4.97;4.50;;;5.20;99.90;7.10;97001.00;;;;5019641;28;20194;-90
2022/12/05 09:48:50;;;;;;;4.43;3.57;;;5.70;99.90;7.40;96993.00;;;;5035526;28;20228;-90
2022/12/05 09:51:53;;;;;;;3.67;3.23;;;6.30;99.90;7.30;96982.00;;;;5039213;28;20202;-90
2022/12/05 09:54:50;;;;;;;4.30;3.60;;;4.10;99.90;7.30;96998.00;;;;5039276;28;20225;-90
2022/12/05 09:57:55;;;;;;;3.97;3.20;;;6.50;99.90;7.30;96986.00;;;;5034731;28;20250;-91
2022/12/05 10:01:04;;;;;;;3.73;3.40;;;6.30;99.90;7.50;96998.00;;;;5036940;28;20209;-90
2022/12/05 10:04:39;;;;;;;2.37;2.17;;;6.30;99.90;8.10;96988.00;;;;5038024;28;20220;-90
2022/12/05 10:07:41;;;;;;;2.87;2.57;;;7.00;99.90;8.00;96992.00;;;;5038016;28;20228;-91
2022/12/05 10:10:46;;;;;;;3.30;3.00;;;6.70;99.90;7.30;96985.00;;;;5029237;28;20201;-89
2022/12/05 10:13:54;;;;;;;3.43;2.93;;;6.30;99.90;7.50;96977.00;;;;5033001;28;20217;-90
2022/12/05 10:16:52;;;;;;;3.53;3.20;;;7.90;99.90;7.90;96990.00;;;;5033449;28;20555;-91
2022/12/05 10:19:47;;;;;;;4.17;3.77;;;7.80;99.90;8.40;96989.00;;;;5034069;28;20209;-91
2022/12/05 10:22:48;;;;;;;3.83;3.43;;;6.70;99.90;8.20;96992.00;;;;5035430;28;20275;-91
2022/12/05 10:25:44;;;;;;;6.40;3.60;;;6.90;99.90;8.10;96981.00;;;;5036630;28;20229;-90
2022/12/05 10:28:46;;;;;;;5.20;3.93;;;5.70;99.90;8.20;96988.00;;;;5036490;28;20220;-90
2022/12/05 10:31:38;;;;;;;4.83;4.23;;;6.50;99.90;8.10;96976.00;;;;5035780;28;20209;-91
2022/12/05 10:34:34;;;;;;;3.90;3.37;;;6.90;99.90;8.40;96960.00;;;;5034219;28;20218;-90
2022/12/05 10:37:29;;;;;;;4.13;3.50;;;7.00;99.90;8.90;96943.00;;;;5020684;28;20281;-90
2022/12/05 10:40:21;;;;;;;4.17;3.77;;;5.30;99.90;9.90;96966.00;;;;5016271;28;20604;-90
2022/12/05 10:43:23;;;;;;;5.13;3.93;;;8.60;99.90;10.60;96982.00;;;;5033648;28;20204;-90
2022/12/05 10:46:17;;;;;;;4.43;4.00;;;8.90;99.90;10.30;96974.00;;;;5032690;28;20201;-89
2022/12/05 10:49:12;;;;;;;6.07;4.40;;;9.10;99.90;10.30;96964.00;;;;5022039;28;20217;-88
2022/12/05 10:52:02;;;;;;;5.30;3.60;;;9.50;99.90;10.50;96949.00;;;;5027078;28;20683;-89
2022/12/05 10:54:59;;;;;;;3.40;3.10;;;9.30;99.90;10.70;96959.00;;;;5031874;28;20217;-90
2022/12/05 10:58:09;;;;;;;2.90;2.63;;;9.70;99.90;10.00;96961.00;;;;5028692;28;20205;-89
2022/12/05 11:01:10;;;;;;;4.77;3.57;;;9.40;99.90;9.80;96963.00;;;;5027956;28;20217;-89
2022/12/05 11:04:01;;;;;;;9.90;3.60;;;9.10;99.90;10.10;96960.00;;;;5034140;28;20255;-89
2022/12/05 11:06:53;;;;;;;5.07;4.07;;;8.90;99.90;9.80;96955.00;;;;5028971;28;20205;-90
2022/12/05 11:09:48;;;;;;;4.40;3.50;;;8.90;99.90;9.60;96954.00;;;;5024339;28;20228;-89
2022/12/05 11:12:39;;;;;;;3.43;3.10;;;8.50;99.90;9.40;96949.00;;;;5030812;28;20190;-90
2022/12/05 11:15:31;;;;;;;3.43;3.13;;;8.40;99.90;9.70;96943.00;;;;5028569;28;20223;-89
2022/12/05 11:18:30;;;;;;;4.03;3.07;;;8.20;99.90;9.30;96939.00;;;;5025002;28;20205;-89
2022/12/05 11:21:19;;;;;;;4.13;3.10;;;8.30;99.90;9.40;96949.00;;;;5029828;28;20268;-90
2022/12/05 11:24:22;;;;;;;3.53;3.07;;;8.20;99.90;9.40;96939.00;;;;5021520;28;20214;-90
2022/12/05 11:27:25;;;;;;;3.20;2.60;;;8.70;99.90;9.60;96928.00;;;;5027256;28;20202;-90
2022/12/05 11:30:20;;;;;;;2.67;2.43;;;8.60;99.90;9.60;96926.00;;;;5015070;28;20696;-89
2022/12/05 11:33:20;;;;;;;2.77;2.57;;;8.00;99.90;9.50;96931.00;;;;5022342;28;20198;-90
2022/12/05 11:36:18;;;;;;;6.60;4.83;;;8.10;99.90;9.20;96939.00;;;;5030114;28;20567;-90
2022/12/05 11:39:12;;;;;;;4.77;4.17;;;8.30;99.90;9.40;96937.00;;;;5031269;28;20278;-89
2022/12/05 11:42:22;;;;;;;3.10;2.70;;;8.00;99.90;9.60;96924.00;;;;5027965;28;20664;-89
2022/12/05 11:45:38;;;;;;;3.83;3.50;;;8.10;99.90;9.50;96909.00;;;;5027904;28;20224;-89
2022/12/05 11:48:46;;;;;;;4.30;3.53;;;7.90;99.90;9.60;96916.00;;;;5028431;28;20221;-89
2022/12/05 11:51:40;;;;;;;6.50;5.37;;;7.90;99.90;9.40;96921.00;;;;5029039;28;20233;-88
2022/12/05 11:54:54;;;;;;;6.93;4.27;;;8.00;99.90;9.20;96918.00;;;;5036852;28;20316;-89
2022/12/05 11:58:12;;;;;;;6.17;5.13;;;7.90;99.90;9.10;96912.00;;;;5026978;28;20197;-89
2022/12/05 12:01:17;;;;;;;11.20;5.77;;;8.10;99.90;9.20;96907.00;;;;5031186;28;20189;-90
2022/12/05 12:04:44;;;;;;;9.00;6.53;;;7.70;99.90;9.50;96895.00;;;;5030328;28;20240;-90
2022/12/05 12:07:58;;;;;;;9.60;7.07;;;7.70;99.90;9.70;96897.00;;;;5019330;28;20203;-89
2022/12/05 12:10:59;;;;;;;8.77;7.63;;;7.80;99.90;10.10;96886.00;;;;5050091;28;20204;-90
2022/12/05 12:14:06;;;;;;;10.30;9.17;;;8.00;99.90;10.10;96860.00;;;;5035179;28;20694;-90
2022/12/05 12:17:07;;;;;;;13.80;8.30;;;8.30;99.90;10.20;96856.00;;;;5037475;28;20216;-90
2022/12/05 12:20:33;;;;;;;9.13;7.20;;;8.40;99.90;9.70;96859.00;;;;5021156;28;20587;-89
2022/12/05 12:23:39;;;;;;;7.87;6.50;;;8.20;99.90;9.30;96859.00;;;;5035073;28;20208;-91
2022/12/05 12:26:42;;;;;;;11.13;6.13;;;8.20;99.90;9.40;96856.00;;;;5029788;28;20189;-89
2022/12/05 12:29:50;;;;;;;8.00;6.53;;;8.20;99.90;9.70;96847.00;;;;5025390;28;20228;-88
2022/12/05 12:32:56;;;;;;;9.33;5.90;;;8.10;99.90;10.10;96842.00;;;;5037171;28;20237;-90
2022/12/05 12:36:09;;;;;;;8.43;6.43;;;8.10;99.90;10.00;96843.00;;;;5025203;28;20205;-89
2022/12/05 12:39:22;;;;;;;4.87;4.37;;;8.70;99.90;8.90;96853.00;;;;5013389;28;20209;-88
2022/12/05 12:42:23;;;;;;;6.77;5.53;;;8.30;99.90;9.20;96837.00;;;;5041154;28;20711;-89
2022/12/05 12:45:41;;;;;;;6.50;5.67;;;8.10;99.90;9.20;96844.00;;;;5033650;28;20251;-89
2022/12/05 12:48:57;;;;;;;7.93;6.57;;;7.90;99.90;9.00;96867.00;;;;5030387;28;20291;-88
2022/12/05 12:51:53;;;;;;;9.23;7.90;;;7.80;99.90;9.00;96872.00;;;;5031186;28;20197;-89
2022/12/05 12:54:57;;;;;;;9.03;7.90;;;7.60;99.90;9.00;96853.00;;;;5030207;28;20228;-87
2022/12/05 12:58:10;;;;;;;10.83;8.20;;;7.60;99.90;8.50;96869.00;;;;5031756;28;20204;-87
2022/12/05 13:01:09;;;;;;;11.27;8.83;;;7.50;99.90;8.50;96858.00;;;;5030861;28;20711;-88
2022/12/05 13:04:05;;;;;;;11.70;9.00;;;7.40;99.90;8.50;96861.00;;;;5035026;28;20221;-87
2022/12/05 13:07:01;;;;;;;15.57;10.67;;;7.40;99.90;8.50;96841.00;;;;5031319;28;20216;-87
2022/12/05 13:09:53;;;;;;;14.90;11.23;;;7.20;99.90;8.50;96846.00;;;;5034118;28;20276;-89
2022/12/05 13:12:44;;;;;;;16.03;10.60;;;7.30;99.90;8.40;96843.00;;;;5034561;28;20215;-89
2022/12/05 13:15:39;;;;;;;18.17;11.43;;;7.10;99.90;8.40;96844.00;;;;5029708;28;20212;-88
2022/12/05 13:18:29;;;;;;;15.60;11.50;;;7.30;99.90;8.30;96854.00;;;;5034201;28;20216;-86
2022/12/05 13:21:18;;;;;;;20.73;12.83;;;7.00;99.90;8.30;96850.00;;;;5026079;28;20221;-87
2022/12/05 13:24:13;;;;;;;14.77;10.77;;;7.30;99.90;8.20;96853.00;;;;5030986;28;20225;-87
2022/12/05 13:27:06;;;;;;;19.73;12.03;;;6.90;99.90;8.10;96853.00;;;;5033355;28;20197;-88
2022/12/05 13:29:58;;;;;;;15.27;11.57;;;6.80;99.90;8.00;96858.00;;;;5024563;28;20217;-88
2022/12/05 13:32:47;;;;;;;16.00;11.33;;;6.80;99.90;7.90;96843.00;;;;5028556;28;20205;-88
2022/12/05 13:42:14;;;;;;;19.50;11.87;;;6.60;99.90;7.80;96836.00;;;;5031894;28;20209;-90